sensor_id;sensor_type;location;lat;lon;timestamp;pressure;altitude;pressure_sealevel;temperature;humidity
8653;BME280;4364;52.426;9.424;2023-11-18T00:01:32;101911.03;;;3.53;100.00
8653;BME280;4364;52.426;9.424;2023-11-18T00:04:00;101912.03;;;3.52;100.00
8653;BME280;4364;52.426;9.424;2023-11-18T00:06:27;101915.13;;;3.49;100.00
8653;BME280;4364;52.426;9.424;2023-11-18T00:08:54;101913.88;;;3.45;100.00
8653;BME280;4364;52.426;9.424;2023-11-18T00:11:20;101914.09;;;3.43;100.00
8653;BME280;4364;52.426;9.424;2023-11-18T00:13:47;101911.34;;;3.37;100.00
8653;BME280;4364;52.426;9.424;2023-11-18T00:16:14;101911.75;;;3.33;100.00
8653;BME280;4364;52.426;9.424;2023-11-18T00:18:45;101912.53;;;3.27;100.00
8653;BME280;4364;52.426;9.424;2023-11-18T00:21:11;101916.84;;;3.22;100.00
8653;BME280;4364;52.426;9.424;2023-11-18T00:23:39;101919.50;;;3.15;100.00
8653;BME280;4364;52.426;9.424;2023-11-18T00:26:05;101921.72;;;3.05;100.00
8653;BME280;4364;52.426;9.424;2023-11-18T00:28:33;101922.66;;;2.90;100.00
8653;BME280;4364;52.426;9.424;2023-11-18T00:31:00;101916.00;;;2.86;100.00
8653;BME280;4364;52.426;9.424;2023-11-18T00:33:27;101926.75;;;2.86;100.00
8653;BME280;4364;52.426;9.424;2023-11-18T00:35:54;101920.56;;;2.86;100.00
8653;BME280;4364;52.426;9.424;2023-11-18T00:38:20;101921.34;;;2.80;100.00
8653;BME280;4364;52.426;9.424;2023-11-18T00:40:48;101918.22;;;2.76;100.00
8653;BME280;4364;52.426;9.424;2023-11-18T00:43:14;101920.19;;;2.67;100.00
8653;BME280;4364;52.426;9.424;2023-11-18T00:45:41;101926.56;;;2.59;100.00
8653;BME280;4364;52.426;9.424;2023-11-18T00:48:09;101918.88;;;2.56;100.00
8653;BME280;4364;52.426;9.424;2023-11-18T00:50:36;101926.94;;;2.56;100.00
8653;BME280;4364;52.426;9.424;2023-11-18T00:53:02;101928.59;;;2.57;100.00
8653;BME280;4364;52.426;9.424;2023-11-18T00:55:29;101926.50;;;2.53;100.00
8653;BME280;4364;52.426;9.424;2023-11-18T00:57:55;101934.75;;;2.51;100.00
8653;BME280;4364;52.426;9.424;2023-11-18T01:00:23;101936.59;;;2.51;100.00
8653;BME280;4364;52.426;9.424;2023-11-18T01:02:49;101935.75;;;2.50;100.00
8653;BME280;4364;52.426;9.424;2023-11-18T01:05:16;101946.44;;;2.44;100.00
8653;BME280;4364;52.426;9.424;2023-11-18T01:07:43;101941.44;;;2.40;100.00
8653;BME280;4364;52.426;9.424;2023-11-18T01:10:10;101936.94;;;2.41;100.00
8653;BME280;4364;52.426;9.424;2023-11-18T01:12:37;101940.38;;;2.35;100.00
8653;BME280;4364;52.426;9.424;2023-11-18T01:15:04;101946.97;;;2.32;100.00
8653;BME280;4364;52.426;9.424;2023-11-18T01:17:31;101947.78;;;2.33;100.00
8653;BME280;4364;52.426;9.424;2023-11-18T01:19:57;101951.94;;;2.35;100.00
8653;BME280;4364;52.426;9.424;2023-11-18T01:22:24;101962.47;;;2.37;100.00
8653;BME280;4364;52.426;9.424;2023-11-18T01:24:51;101957.56;;;2.40;100.00
8653;BME280;4364;52.426;9.424;2023-11-18T01:27:18;101959.03;;;2.43;100.00
8653;BME280;4364;52.426;9.424;2023-11-18T01:29:45;101962.16;;;2.47;100.00
8653;BME280;4364;52.426;9.424;2023-11-18T01:32:13;101966.59;;;2.54;100.00
8653;BME280;4364;52.426;9.424;2023-11-18T01:34:40;101975.47;;;2.55;100.00
8653;BME280;4364;52.426;9.424;2023-11-18T01:37:07;101977.78;;;2.58;100.00
8653;BME280;4364;52.426;9.424;2023-11-18T01:39:34;101973.09;;;2.67;100.00
8653;BME280;4364;52.426;9.424;2023-11-18T01:42:01;101968.16;;;2.70;100.00
8653;BME280;4364;52.426;9.424;2023-11-18T01:44:30;101978.91;;;2.70;100.00
8653;BME280;4364;52.426;9.424;2023-11-18T01:46:57;101976.28;;;2.77;100.00
8653;BME280;4364;52.426;9.424;2023-11-18T01:49:26;101972.38;;;2.80;100.00
8653;BME280;4364;52.426;9.424;2023-11-18T01:51:56;101978.38;;;2.82;100.00
8653;BME280;4364;52.426;9.424;2023-11-18T01:54:23;101985.69;;;2.88;100.00
8653;BME280;4364;52.426;9.424;2023-11-18T01:56:50;101988.41;;;2.94;100.00
8653;BME280;4364;52.426;9.424;2023-11-18T01:59:18;101985.34;;;2.97;100.00
8653;BME280;4364;52.426;9.424;2023-11-18T02:01:50;101992.19;;;3.00;100.00
8653;BME280;4364;52.426;9.424;2023-11-18T02:04:18;101983.09;;;3.01;100.00
8653;BME280;4364;52.426;9.424;2023-11-18T02:06:50;101978.34;;;3.03;100.00
8653;BME280;4364;52.426;9.424;2023-11-18T02:09:19;101984.78;;;3.09;100.00
8653;BME280;4364;52.426;9.424;2023-11-18T02:12:00;101975.72;;;3.10;100.00
8653;BME280;4364;52.426;9.424;2023-11-18T02:14:31;101975.13;;;3.14;100.00
8653;BME280;4364;52.426;9.424;2023-11-18T02:17:02;101983.44;;;3.20;100.00
8653;BME280;4364;52.426;9.424;2023-11-18T02:19:30;101977.69;;;3.23;100.00
8653;BME280;4364;52.426;9.424;2023-11-18T02:21:57;101978.09;;;3.26;100.00
8653;BME280;4364;52.426;9.424;2023-11-18T02:24:28;101977.88;;;3.21;100.00
8653;BME280;4364;52.426;9.424;2023-11-18T02:26:57;101977.00;;;3.21;100.00
8653;BME280;4364;52.426;9.424;2023-11-18T02:29:25;101978.25;;;3.18;100.00
8653;BME280;4364;52.426;9.424;2023-11-18T02:31:56;101984.44;;;3.19;100.00
8653;BME280;4364;52.426;9.424;2023-11-18T02:34:29;101983.63;;;3.18;100.00
8653;BME280;4364;52.426;9.424;2023-11-18T02:36:58;101988.81;;;3.20;100.00
8653;BME280;4364;52.426;9.424;2023-11-18T02:39:36;101988.63;;;3.21;100.00
8653;BME280;4364;52.426;9.424;2023-11-18T02:42:07;101981.38;;;3.22;100.00
8653;BME280;4364;52.426;9.424;2023-11-18T02:44:38;101976.63;;;3.24;100.00
8653;BME280;4364;52.426;9.424;2023-11-18T02:47:05;101982.91;;;3.31;100.00
8653;BME280;4364;52.426;9.424;2023-11-18T02:49:33;101979.59;;;3.36;100.00
8653;BME280;4364;52.426;9.424;2023-11-18T02:52:00;101979.84;;;3.41;100.00
8653;BME280;4364;52.426;9.424;2023-11-18T02:54:26;101978.19;;;3.40;100.00
8653;BME280;4364;52.426;9.424;2023-11-18T02:56:53;101982.13;;;3.44;100.00
8653;BME280;4364;52.426;9.424;2023-11-18T02:59:20;101972.84;;;3.46;100.00
8653;BME280;4364;52.426;9.424;2023-11-18T03:01:47;101977.41;;;3.46;100.00
8653;BME280;4364;52.426;9.424;2023-11-18T03:04:14;101975.53;;;3.46;100.00
8653;BME280;4364;52.426;9.424;2023-11-18T03:06:41;101981.53;;;3.48;100.00
8653;BME280;4364;52.426;9.424;2023-11-18T03:09:09;101975.97;;;3.50;100.00
8653;BME280;4364;52.426;9.424;2023-11-18T03:11:36;101984.84;;;3.50;100.00
8653;BME280;4364;52.426;9.424;2023-11-18T03:14:04;101971.84;;;3.54;100.00
8653;BME280;4364;52.426;9.424;2023-11-18T03:16:31;101978.69;;;3.57;100.00
8653;BME280;4364;52.426;9.424;2023-11-18T03:18:58;101985.75;;;3.58;100.00
8653;BME280;4364;52.426;9.424;2023-11-18T03:21:25;101982.00;;;3.59;100.00
8653;BME280;4364;52.426;9.424;2023-11-18T03:23:53;101988.47;;;3.64;100.00
8653;BME280;4364;52.426;9.424;2023-11-18T03:26:19;101982.91;;;3.66;100.00
8653;BME280;4364;52.426;9.424;2023-11-18T03:28:46;101988.03;;;3.67;100.00
8653;BME280;4364;52.426;9.424;2023-11-18T03:31:13;101988.50;;;3.71;100.00
8653;BME280;4364;52.426;9.424;2023-11-18T03:33:40;101991.88;;;3.86;100.00
8653;BME280;4364;52.426;9.424;2023-11-18T03:36:07;101991.22;;;3.78;100.00
8653;BME280;4364;52.426;9.424;2023-11-18T03:38:34;101993.03;;;3.70;100.00
8653;BME280;4364;52.426;9.424;2023-11-18T03:41:01;101985.81;;;3.71;100.00
8653;BME280;4364;52.426;9.424;2023-11-18T03:43:28;101993.41;;;3.61;100.00
8653;BME280;4364;52.426;9.424;2023-11-18T03:45:55;102005.00;;;3.61;100.00
8653;BME280;4364;52.426;9.424;2023-11-18T03:48:23;101993.19;;;3.62;100.00
8653;BME280;4364;52.426;9.424;2023-11-18T03:50:50;101989.06;;;3.60;100.00
8653;BME280;4364;52.426;9.424;2023-11-18T03:53:16;101987.19;;;3.60;100.00
8653;BME280;4364;52.426;9.424;2023-11-18T03:55:43;101984.28;;;3.55;100.00
8653;BME280;4364;52.426;9.424;2023-11-18T03:58:09;101979.13;;;3.60;100.00
8653;BME280;4364;52.426;9.424;2023-11-18T04:00:36;101977.25;;;3.61;100.00
8653;BME280;4364;52.426;9.424;2023-11-18T04:03:02;101982.25;;;3.64;100.00
8653;BME280;4364;52.426;9.424;2023-11-18T04:05:29;101984.34;;;3.68;100.00
8653;BME280;4364;52.426;9.424;2023-11-18T04:07:58;101981.28;;;3.78;100.00
8653;BME280;4364;52.426;9.424;2023-11-18T04:10:24;101974.44;;;3.76;100.00
8653;BME280;4364;52.426;9.424;2023-11-18T04:12:51;101972.81;;;3.81;100.00
8653;BME280;4364;52.426;9.424;2023-11-18T04:15:18;101972.41;;;3.78;100.00
8653;BME280;4364;52.426;9.424;2023-11-18T04:17:44;101973.59;;;3.75;100.00
8653;BME280;4364;52.426;9.424;2023-11-18T04:20:11;101967.84;;;3.78;100.00
8653;BME280;4364;52.426;9.424;2023-11-18T04:22:40;101970.72;;;3.77;100.00
8653;BME280;4364;52.426;9.424;2023-11-18T04:25:10;101968.44;;;3.80;100.00
8653;BME280;4364;52.426;9.424;2023-11-18T04:27:38;101967.44;;;3.81;100.00
8653;BME280;4364;52.426;9.424;2023-11-18T04:30:05;101961.81;;;3.76;100.00
8653;BME280;4364;52.426;9.424;2023-11-18T04:32:31;101959.13;;;3.76;100.00
8653;BME280;4364;52.426;9.424;2023-11-18T04:35:01;101964.94;;;3.80;100.00
8653;BME280;4364;52.426;9.424;2023-11-18T04:37:37;101966.19;;;3.84;100.00
8653;BME280;4364;52.426;9.424;2023-11-18T04:40:04;101967.25;;;3.89;100.00
8653;BME280;4364;52.426;9.424;2023-11-18T04:42:39;101962.09;;;3.88;100.00
8653;BME280;4364;52.426;9.424;2023-11-18T04:45:06;101960.41;;;3.87;100.00
8653;BME280;4364;52.426;9.424;2023-11-18T04:47:36;101963.72;;;3.89;100.00
8653;BME280;4364;52.426;9.424;2023-11-18T04:50:04;101957.13;;;3.92;100.00
8653;BME280;4364;52.426;9.424;2023-11-18T04:52:30;101958.56;;;3.94;100.00
8653;BME280;4364;52.426;9.424;2023-11-18T04:55:03;101951.53;;;3.93;100.00
8653;BME280;4364;52.426;9.424;2023-11-18T04:57:29;101963.91;;;3.87;100.00
8653;BME280;4364;52.426;9.424;2023-11-18T04:59:56;101956.69;;;3.88;100.00
8653;BME280;4364;52.426;9.424;2023-11-18T05:02:22;101959.19;;;3.89;100.00
8653;BME280;4364;52.426;9.424;2023-11-18T05:04:49;101952.97;;;3.89;100.00
8653;BME280;4364;52.426;9.424;2023-11-18T05:07:16;101955.44;;;3.90;100.00
8653;BME280;4364;52.426;9.424;2023-11-18T05:09:43;101951.94;;;3.90;100.00
8653;BME280;4364;52.426;9.424;2023-11-18T05:12:10;101952.53;;;3.85;100.00
8653;BME280;4364;52.426;9.424;2023-11-18T05:14:36;101959.56;;;3.80;100.00
8653;BME280;4364;52.426;9.424;2023-11-18T05:17:04;101946.69;;;3.75;100.00
8653;BME280;4364;52.426;9.424;2023-11-18T05:19:31;101946.25;;;3.65;100.00
8653;BME280;4364;52.426;9.424;2023-11-18T05:21:58;101939.41;;;3.62;100.00
8653;BME280;4364;52.426;9.424;2023-11-18T05:24:26;101939.81;;;3.59;100.00
8653;BME280;4364;52.426;9.424;2023-11-18T05:26:52;101933.38;;;3.53;100.00
8653;BME280;4364;52.426;9.424;2023-11-18T05:29:19;101933.13;;;3.48;100.00
8653;BME280;4364;52.426;9.424;2023-11-18T05:31:47;101924.88;;;3.50;100.00
8653;BME280;4364;52.426;9.424;2023-11-18T05:34:14;101923.19;;;3.49;100.00
8653;BME280;4364;52.426;9.424;2023-11-18T05:36:41;101922.19;;;3.50;100.00
8653;BME280;4364;52.426;9.424;2023-11-18T05:39:07;101922.19;;;3.50;100.00
8653;BME280;4364;52.426;9.424;2023-11-18T05:41:36;101920.31;;;3.50;100.00
8653;BME280;4364;52.426;9.424;2023-11-18T05:44:07;101917.00;;;3.48;100.00
8653;BME280;4364;52.426;9.424;2023-11-18T05:46:43;101920.72;;;3.47;100.00
8653;BME280;4364;52.426;9.424;2023-11-18T05:49:13;101913.06;;;3.44;100.00
8653;BME280;4364;52.426;9.424;2023-11-18T05:51:40;101911.19;;;3.45;100.00
8653;BME280;4364;52.426;9.424;2023-11-18T05:54:10;101911.16;;;3.38;100.00
8653;BME280;4364;52.426;9.424;2023-11-18T05:56:37;101907.19;;;3.34;100.00
8653;BME280;4364;52.426;9.424;2023-11-18T05:59:03;101910.09;;;3.32;100.00
8653;BME280;4364;52.426;9.424;2023-11-18T06:01:31;101908.44;;;3.31;100.00
8653;BME280;4364;52.426;9.424;2023-11-18T06:03:58;101916.91;;;3.28;100.00
8653;BME280;4364;52.426;9.424;2023-11-18T06:06:25;101920.81;;;3.26;100.00
8653;BME280;4364;52.426;9.424;2023-11-18T06:08:52;101920.41;;;3.29;100.00
8653;BME280;4364;52.426;9.424;2023-11-18T06:11:20;101908.59;;;3.23;100.00
8653;BME280;4364;52.426;9.424;2023-11-18T06:13:48;101923.28;;;3.27;100.00
8653;BME280;4364;52.426;9.424;2023-11-18T06:16:25;101914.59;;;3.25;100.00
8653;BME280;4364;52.426;9.424;2023-11-18T06:18:54;101922.25;;;3.22;100.00
8653;BME280;4364;52.426;9.424;2023-11-18T06:21:22;101926.16;;;3.19;100.00
8653;BME280;4364;52.426;9.424;2023-11-18T06:23:55;101923.88;;;3.16;100.00
8653;BME280;4364;52.426;9.424;2023-11-18T06:26:22;101922.00;;;3.17;100.00
8653;BME280;4364;52.426;9.424;2023-11-18T06:28:49;101921.81;;;3.18;100.00
8653;BME280;4364;52.426;9.424;2023-11-18T06:31:15;101921.38;;;3.14;100.00
8653;BME280;4364;52.426;9.424;2023-11-18T06:33:46;101932.53;;;3.11;100.00
8653;BME280;4364;52.426;9.424;2023-11-18T06:38:41;101925.22;;;3.05;100.00
8653;BME280;4364;52.426;9.424;2023-11-18T06:41:07;101926.47;;;3.03;100.00
8653;BME280;4364;52.426;9.424;2023-11-18T06:43:41;101928.91;;;2.97;100.00
8653;BME280;4364;52.426;9.424;2023-11-18T06:46:28;101932.00;;;2.94;100.00
8653;BME280;4364;52.426;9.424;2023-11-18T06:48:58;101935.25;;;2.90;100.00
8653;BME280;4364;52.426;9.424;2023-11-18T06:51:26;101931.69;;;2.83;100.00
8653;BME280;4364;52.426;9.424;2023-11-18T06:53:54;101937.91;;;2.83;100.00
8653;BME280;4364;52.426;9.424;2023-11-18T06:56:22;101946.97;;;2.82;100.00
8653;BME280;4364;52.426;9.424;2023-11-18T06:58:48;101944.09;;;2.84;100.00
8653;BME280;4364;52.426;9.424;2023-11-18T07:01:15;101946.63;;;2.92;100.00
8653;BME280;4364;52.426;9.424;2023-11-18T07:03:42;101946.63;;;2.92;100.00
8653;BME280;4364;52.426;9.424;2023-11-18T07:06:10;101942.13;;;2.92;100.00
8653;BME280;4364;52.426;9.424;2023-11-18T07:08:37;101944.00;;;2.99;100.00
8653;BME280;4364;52.426;9.424;2023-11-18T07:11:04;101948.97;;;3.02;100.00
8653;BME280;4364;52.426;9.424;2023-11-18T07:13:32;101933.47;;;3.04;100.00
8653;BME280;4364;52.426;9.424;2023-11-18T07:16:01;101935.97;;;3.05;100.00
8653;BME280;4364;52.426;9.424;2023-11-18T07:18:29;101948.41;;;3.06;100.00
8653;BME280;4364;52.426;9.424;2023-11-18T07:21:02;101930.03;;;3.10;100.00
8653;BME280;4364;52.426;9.424;2023-11-18T07:23:34;101939.81;;;3.18;100.00
8653;BME280;4364;52.426;9.424;2023-11-18T07:26:02;101937.34;;;3.23;100.00
8653;BME280;4364;52.426;9.424;2023-11-18T07:28:30;101931.16;;;3.29;100.00
8653;BME280;4364;52.426;9.424;2023-11-18T07:30:57;101933.47;;;3.32;100.00
8653;BME280;4364;52.426;9.424;2023-11-18T07:33:26;101943.00;;;3.34;100.00
8653;BME280;4364;52.426;9.424;2023-11-18T07:35:53;101937.84;;;3.40;100.00
8653;BME280;4364;52.426;9.424;2023-11-18T07:38:21;101943.03;;;3.41;100.00
8653;BME280;4364;52.426;9.424;2023-11-18T07:40:47;101950.25;;;3.41;100.00
8653;BME280;4364;52.426;9.424;2023-11-18T07:43:15;101945.91;;;3.40;100.00
8653;BME280;4364;52.426;9.424;2023-11-18T07:45:42;101944.88;;;3.41;100.00
8653;BME280;4364;52.426;9.424;2023-11-18T07:48:10;101946.31;;;3.37;100.00
8653;BME280;4364;52.426;9.424;2023-11-18T07:50:39;101950.47;;;3.39;100.00
8653;BME280;4364;52.426;9.424;2023-11-18T07:53:11;101954.41;;;3.43;100.00
8653;BME280;4364;52.426;9.424;2023-11-18T07:55:38;101956.91;;;3.45;100.00
8653;BME280;4364;52.426;9.424;2023-11-18T07:58:06;101941.00;;;3.50;100.00
8653;BME280;4364;52.426;9.424;2023-11-18T08:00:43;101943.09;;;3.55;100.00
8653;BME280;4364;52.426;9.424;2023-11-18T08:03:12;101932.78;;;3.58;100.00
8653;BME280;4364;52.426;9.424;2023-11-18T08:05:44;101943.13;;;3.61;100.00
8653;BME280;4364;52.426;9.424;2023-11-18T08:08:12;101939.19;;;3.64;100.00
8653;BME280;4364;52.426;9.424;2023-11-18T08:10:40;101929.88;;;3.60;100.00
8653;BME280;4364;52.426;9.424;2023-11-18T08:13:08;101924.31;;;3.61;100.00
8653;BME280;4364;52.426;9.424;2023-11-18T08:15:38;101916.66;;;3.65;100.00
8653;BME280;4364;52.426;9.424;2023-11-18T08:18:06;101913.53;;;3.61;100.00
8653;BME280;4364;52.426;9.424;2023-11-18T08:20:33;101907.34;;;3.67;100.00
8653;BME280;4364;52.426;9.424;2023-11-18T08:23:00;101901.38;;;3.72;100.00
8653;BME280;4364;52.426;9.424;2023-11-18T08:25:27;101899.06;;;3.69;100.00
8653;BME280;4364;52.426;9.424;2023-11-18T08:27:53;101898.44;;;3.67;100.00
8653;BME280;4364;52.426;9.424;2023-11-18T08:30:20;101904.91;;;3.73;100.00
8653;BME280;4364;52.426;9.424;2023-11-18T08:32:47;101907.38;;;3.81;100.00
8653;BME280;4364;52.426;9.424;2023-11-18T08:35:15;101900.78;;;3.83;100.00
8653;BME280;4364;52.426;9.424;2023-11-18T08:37:43;101904.50;;;3.89;100.00
8653;BME280;4364;52.426;9.424;2023-11-18T08:40:10;101913.03;;;3.93;100.00
8653;BME280;4364;52.426;9.424;2023-11-18T08:43:03;101913.25;;;3.98;100.00
8653;BME280;4364;52.426;9.424;2023-11-18T08:45:34;101911.19;;;4.06;100.00
8653;BME280;4364;52.426;9.424;2023-11-18T08:48:02;101910.81;;;4.10;100.00
8653;BME280;4364;52.426;9.424;2023-11-18T08:50:35;101910.16;;;4.14;100.00
8653;BME280;4364;52.426;9.424;2023-11-18T08:53:01;101903.56;;;4.17;100.00
8653;BME280;4364;52.426;9.424;2023-11-18T08:55:35;101901.69;;;4.17;100.00
8653;BME280;4364;52.426;9.424;2023-11-18T08:58:11;101900.25;;;4.21;100.00
8653;BME280;4364;52.426;9.424;2023-11-18T09:00:56;101898.59;;;4.27;100.00
8653;BME280;4364;52.426;9.424;2023-11-18T09:03:32;101900.69;;;4.32;100.00
8653;BME280;4364;52.426;9.424;2023-11-18T09:06:06;101899.84;;;4.31;100.00
8653;BME280;4364;52.426;9.424;2023-11-18T09:08:45;101895.09;;;4.40;100.00
8653;BME280;4364;52.426;9.424;2023-11-18T09:11:13;101888.88;;;4.46;100.00
8653;BME280;4364;52.426;9.424;2023-11-18T09:13:47;101882.25;;;4.49;100.00
8653;BME280;4364;52.426;9.424;2023-11-18T09:16:20;101875.63;;;4.64;100.00
8653;BME280;4364;52.426;9.424;2023-11-18T09:18:49;101883.06;;;4.56;100.00
8653;BME280;4364;52.426;9.424;2023-11-18T09:21:17;101884.31;;;4.73;100.00
8653;BME280;4364;52.426;9.424;2023-11-18T09:23:49;101885.75;;;4.76;100.00
8653;BME280;4364;52.426;9.424;2023-11-18T09:26:16;101880.56;;;4.68;100.00
8653;BME280;4364;52.426;9.424;2023-11-18T09:28:43;101884.09;;;4.75;100.00
8653;BME280;4364;52.426;9.424;2023-11-18T09:31:13;101888.63;;;4.81;100.00
8653;BME280;4364;52.426;9.424;2023-11-18T09:33:40;101882.84;;;4.84;100.00
8653;BME280;4364;52.426;9.424;2023-11-18T09:36:11;101868.13;;;4.87;100.00
8653;BME280;4364;52.426;9.424;2023-11-18T09:38:39;101883.88;;;4.90;100.00
8653;BME280;4364;52.426;9.424;2023-11-18T09:41:13;101869.56;;;4.89;100.00
8653;BME280;4364;52.426;9.424;2023-11-18T09:43:41;101862.91;;;5.05;100.00
8653;BME280;4364;52.426;9.424;2023-11-18T09:46:26;101861.44;;;5.03;100.00
8653;BME280;4364;52.426;9.424;2023-11-18T09:49:26;101863.31;;;5.02;100.00
8653;BME280;4364;52.426;9.424;2023-11-18T09:52:03;101860.38;;;5.10;100.00
8653;BME280;4364;52.426;9.424;2023-11-18T09:55:04;101852.25;;;5.24;100.00
8653;BME280;4364;52.426;9.424;2023-11-18T09:57:44;101848.47;;;5.38;100.00
8653;BME280;4364;52.426;9.424;2023-11-18T10:00:16;101837.25;;;5.41;100.00
8653;BME280;4364;52.426;9.424;2023-11-18T10:02:48;101841.41;;;5.37;100.00
8653;BME280;4364;52.426;9.424;2023-11-18T10:05:19;101837.72;;;5.31;100.00
8653;BME280;4364;52.426;9.424;2023-11-18T10:07:53;101842.03;;;5.39;100.00
8653;BME280;4364;52.426;9.424;2023-11-18T10:10:20;101840.16;;;5.39;100.00
8653;BME280;4364;52.426;9.424;2023-11-18T10:12:48;101830.63;;;5.37;100.00
8653;BME280;4364;52.426;9.424;2023-11-18T10:15:24;101831.22;;;5.39;100.00
8653;BME280;4364;52.426;9.424;2023-11-18T10:17:52;101824.00;;;5.33;100.00
8653;BME280;4364;52.426;9.424;2023-11-18T10:20:48;101827.09;;;5.43;100.00
8653;BME280;4364;52.426;9.424;2023-11-18T10:23:19;101824.28;;;5.63;100.00
8653;BME280;4364;52.426;9.424;2023-11-18T10:25:49;101824.31;;;5.56;100.00
8653;BME280;4364;52.426;9.424;2023-11-18T10:28:24;101835.94;;;5.57;100.00
8653;BME280;4364;52.426;9.424;2023-11-18T10:30:50;101822.81;;;5.61;100.00
8653;BME280;4364;52.426;9.424;2023-11-18T10:33:17;101808.22;;;5.75;100.00
8653;BME280;4364;52.426;9.424;2023-11-18T10:35:52;101805.91;;;5.79;100.00
8653;BME280;4364;52.426;9.424;2023-11-18T10:38:18;101805.47;;;5.82;100.00
8653;BME280;4364;52.426;9.424;2023-11-18T10:40:46;101813.31;;;5.90;100.00
8653;BME280;4364;52.426;9.424;2023-11-18T10:43:13;101811.25;;;5.85;100.00
8653;BME280;4364;52.426;9.424;2023-11-18T10:45:43;101807.75;;;5.85;100.00
8653;BME280;4364;52.426;9.424;2023-11-18T10:48:13;101791.72;;;5.90;100.00
8653;BME280;4364;52.426;9.424;2023-11-18T10:50:45;101796.28;;;5.89;100.00
8653;BME280;4364;52.426;9.424;2023-11-18T10:53:13;101784.59;;;6.02;100.00
8653;BME280;4364;52.426;9.424;2023-11-18T10:55:42;101767.81;;;5.93;100.00
8653;BME280;4364;52.426;9.424;2023-11-18T10:58:10;101770.56;;;5.87;100.00
8653;BME280;4364;52.426;9.424;2023-11-18T11:00:50;101765.75;;;5.89;100.00
8653;BME280;4364;52.426;9.424;2023-11-18T11:03:19;101760.13;;;5.97;100.00
8653;BME280;4364;52.426;9.424;2023-11-18T11:05:50;101759.25;;;6.03;100.00
8653;BME280;4364;52.426;9.424;2023-11-18T11:08:18;101756.78;;;6.02;100.00
8653;BME280;4364;52.426;9.424;2023-11-18T11:10:59;101755.13;;;5.94;100.00
8653;BME280;4364;52.426;9.424;2023-11-18T11:13:30;101756.78;;;5.95;100.00
8653;BME280;4364;52.426;9.424;2023-11-18T11:15:59;101756.78;;;6.02;100.00
8653;BME280;4364;52.426;9.424;2023-11-18T11:18:33;101738.47;;;6.04;100.00
8653;BME280;4364;52.426;9.424;2023-11-18T11:21:10;101738.72;;;6.21;100.00
8653;BME280;4364;52.426;9.424;2023-11-18T11:23:57;101729.53;;;6.03;100.00
8653;BME280;4364;52.426;9.424;2023-11-18T11:26:34;101731.19;;;6.04;100.00
8653;BME280;4364;52.426;9.424;2023-11-18T11:29:32;101717.09;;;6.02;100.00
8653;BME280;4364;52.426;9.424;2023-11-18T11:32:19;101721.81;;;6.07;100.00
8653;BME280;4364;52.426;9.424;2023-11-18T11:34:56;101731.13;;;6.11;100.00
8653;BME280;4364;52.426;9.424;2023-11-18T11:37:32;101730.69;;;6.14;100.00
8653;BME280;4364;52.426;9.424;2023-11-18T11:40:02;101709.69;;;6.16;100.00
8653;BME280;4364;52.426;9.424;2023-11-18T11:42:35;101727.09;;;6.20;100.00
8653;BME280;4364;52.426;9.424;2023-11-18T11:45:02;101720.84;;;6.20;100.00
8653;BME280;4364;52.426;9.424;2023-11-18T11:47:30;101716.47;;;6.25;100.00
8653;BME280;4364;52.426;9.424;2023-11-18T11:50:17;101706.84;;;6.29;99.12
8653;BME280;4364;52.426;9.424;2023-11-18T11:52:53;101694.78;;;6.32;98.83
8653;BME280;4364;52.426;9.424;2023-11-18T11:55:46;101682.09;;;6.33;97.98
8653;BME280;4364;52.426;9.424;2023-11-18T11:58:30;101679.91;;;6.23;95.44
8653;BME280;4364;52.426;9.424;2023-11-18T12:03:41;101676.75;;;6.44;96.63
8653;BME280;4364;52.426;9.424;2023-11-18T12:06:12;101665.13;;;6.44;97.35
8653;BME280;4364;52.426;9.424;2023-11-18T12:08:42;101667.75;;;6.51;98.14
8653;BME280;4364;52.426;9.424;2023-11-18T12:11:09;101675.94;;;6.44;98.40
8653;BME280;4364;52.426;9.424;2023-11-18T12:13:37;101675.88;;;6.32;99.24
8653;BME280;4364;52.426;9.424;2023-11-18T12:16:06;101662.22;;;6.45;99.59
8653;BME280;4364;52.426;9.424;2023-11-18T12:18:36;101676.75;;;6.44;99.59
8653;BME280;4364;52.426;9.424;2023-11-18T12:21:03;101671.44;;;6.38;99.81
8653;BME280;4364;52.426;9.424;2023-11-18T12:23:31;101672.78;;;6.28;100.00
8653;BME280;4364;52.426;9.424;2023-11-18T12:26:00;101676.91;;;6.31;100.00
8653;BME280;4364;52.426;9.424;2023-11-18T12:28:30;101665.28;;;6.30;100.00
8653;BME280;4364;52.426;9.424;2023-11-18T12:31:02;101666.16;;;6.43;99.44
8653;BME280;4364;52.426;9.424;2023-11-18T12:36:44;101655.66;;;6.35;98.56
8653;BME280;4364;52.426;9.424;2023-11-18T12:42:04;101651.94;;;6.36;99.35
8653;BME280;4364;52.426;9.424;2023-11-18T12:44:38;101631.81;;;6.32;99.54
8653;BME280;4364;52.426;9.424;2023-11-18T12:47:15;101640.31;;;6.35;99.57
8653;BME280;4364;52.426;9.424;2023-11-18T12:49:45;101650.34;;;6.28;99.45
8653;BME280;4364;52.426;9.424;2023-11-18T12:52:16;101638.06;;;6.32;98.62
8653;BME280;4364;52.426;9.424;2023-11-18T12:54:46;101622.81;;;6.19;98.28
8653;BME280;4364;52.426;9.424;2023-11-18T12:57:20;101626.72;;;6.23;97.19
8653;BME280;4364;52.426;9.424;2023-11-18T12:59:49;101617.63;;;6.18;97.23
8653;BME280;4364;52.426;9.424;2023-11-18T13:02:17;101626.94;;;6.22;97.38
8653;BME280;4364;52.426;9.424;2023-11-18T13:04:46;101618.78;;;6.10;96.43
8653;BME280;4364;52.426;9.424;2023-11-18T13:07:17;101619.28;;;6.19;96.34
8653;BME280;4364;52.426;9.424;2023-11-18T13:09:44;101629.09;;;6.13;96.81
8653;BME280;4364;52.426;9.424;2023-11-18T13:12:13;101624.16;;;6.10;96.94
8653;BME280;4364;52.426;9.424;2023-11-18T13:14:46;101628.72;;;6.09;96.85
8653;BME280;4364;52.426;9.424;2023-11-18T13:17:15;101623.84;;;6.00;96.84
8653;BME280;4364;52.426;9.424;2023-11-18T13:19:45;101630.47;;;6.04;97.09
8653;BME280;4364;52.426;9.424;2023-11-18T13:22:13;101621.97;;;6.00;97.57
8653;BME280;4364;52.426;9.424;2023-11-18T13:24:42;101618.91;;;5.97;98.17
8653;BME280;4364;52.426;9.424;2023-11-18T13:27:14;101615.13;;;5.98;98.42
8653;BME280;4364;52.426;9.424;2023-11-18T13:29:47;101603.53;;;5.97;97.86
8653;BME280;4364;52.426;9.424;2023-11-18T13:32:19;101602.34;;;6.11;97.65
8653;BME280;4364;52.426;9.424;2023-11-18T13:34:52;101597.31;;;5.97;97.91
8653;BME280;4364;52.426;9.424;2023-11-18T13:37:19;101590.44;;;5.94;97.48